createdAt,value
2018-08-30T00:02:20.686Z,5.84
2018-08-30T00:08:15.665Z,5.4
2018-08-30T00:14:10.689Z,6.11
2018-08-30T00:20:05.686Z,7.51
2018-08-30T00:26:00.722Z,6.18
2018-08-30T00:31:55.709Z,5.06
2018-08-30T00:37:50.703Z,5.68
2018-08-30T00:43:45.699Z,5.2
2018-08-30T00:49:40.739Z,7.17
2018-08-30T00:55:35.725Z,5.94
2018-08-30T01:01:30.719Z,5.12
2018-08-30T01:07:25.751Z,7.1
2018-08-30T01:13:20.774Z,6.31
2018-08-30T01:19:15.759Z,6.96
2018-08-30T01:25:10.748Z,6.66
2018-08-30T01:31:05.725Z,5.98
2018-08-30T01:37:00.761Z,8.42
2018-08-30T01:42:55.771Z,6.23
2018-08-30T01:48:50.789Z,6.18
2018-08-30T01:54:45.769Z,5.71
2018-08-30T02:00:40.786Z,6.47
2018-08-30T02:06:35.762Z,7.66
2018-08-30T02:12:30.756Z,7.53
2018-08-30T02:18:25.793Z,7.24
2018-08-30T02:24:20.822Z,7.34
2018-08-30T02:30:15.769Z,6.05
2018-08-30T02:36:10.907Z,6.31
2018-08-30T02:42:05.800Z,6.96
2018-08-30T02:48:00.781Z,6.43
2018-08-30T02:53:55.845Z,5.73
2018-08-30T02:59:50.795Z,6.48
2018-08-30T03:05:45.841Z,7.1
2018-08-30T03:11:40.832Z,6.04
2018-08-30T03:17:35.836Z,8.43
2018-08-30T03:23:30.829Z,6.33
2018-08-30T03:29:25.822Z,5.57
2018-08-30T03:35:20.818Z,8.89
2018-08-30T03:41:15.828Z,5.55
2018-08-30T03:47:10.821Z,4.99
2018-08-30T03:53:05.837Z,6.27
2018-08-30T03:59:00.828Z,9.17
2018-08-30T04:04:55.852Z,5.63
2018-08-30T04:10:50.861Z,7.7
2018-08-30T04:16:45.859Z,5.99
2018-08-30T04:22:40.851Z,4.84
2018-08-30T04:28:35.842Z,6.49
2018-08-30T04:34:30.887Z,6.13
2018-08-30T04:40:25.878Z,5.45
2018-08-30T04:46:20.901Z,5.39
2018-08-30T04:52:15.872Z,6.04
2018-08-30T04:58:10.909Z,7.22
2018-08-30T05:04:05.892Z,5.85
2018-08-30T05:10:00.962Z,7.19
2018-08-30T05:15:55.897Z,6.82
2018-08-30T05:21:50.954Z,6.44
2018-08-30T05:27:45.970Z,7.68
2018-08-30T05:33:40.917Z,6.54
2018-08-30T05:39:35.917Z,9.84
2018-08-30T05:45:30.936Z,8.78
2018-08-30T05:51:25.921Z,10.69
2018-08-30T05:57:20.982Z,10.43
2018-08-30T06:03:15.911Z,11.52
2018-08-30T06:09:10.962Z,8.26
2018-08-30T06:15:06.043Z,7.92
2018-08-30T06:21:00.979Z,9.62
2018-08-30T06:26:56.137Z,8.75
2018-08-30T06:32:51.042Z,11.5
2018-08-30T06:38:46.054Z,7.84
2018-08-30T06:44:40.955Z,7.63
2018-08-30T06:50:35.970Z,8.29
2018-08-30T06:56:31.089Z,9.27
2018-08-30T07:02:26.013Z,7.56
2018-08-30T07:08:20.975Z,10.67
2018-08-30T07:14:15.970Z,9.48
2018-08-30T07:20:11.034Z,11.22
2018-08-30T07:26:05.979Z,6.32
2018-08-30T07:32:01.020Z,7.97
2018-08-30T07:37:56.054Z,9.15
2018-08-30T07:43:51.012Z,12.74
2018-08-30T07:49:46.013Z,9.15
2018-08-30T07:55:40.999Z,11.36
2018-08-30T08:01:36.027Z,10.91
2018-08-30T08:07:31.037Z,11.34
2018-08-30T08:13:26.037Z,13.63
2018-08-30T08:19:21.028Z,13.07
2018-08-30T08:25:16.040Z,12.93
2018-08-30T08:31:11.044Z,10.47
2018-08-30T08:37:06.027Z,12.9
2018-08-30T08:43:01.025Z,8.59
2018-08-30T08:48:56.072Z,9.16
2018-08-30T08:54:51.046Z,9.07
2018-08-30T09:00:46.065Z,8.48
2018-08-30T09:06:41.050Z,8.36
2018-08-30T09:12:36.080Z,8.88
2018-08-30T09:18:31.160Z,10.72
2018-08-30T09:24:26.069Z,6.93
2018-08-30T09:30:21.106Z,7.17
2018-08-30T09:36:16.119Z,7.85
2018-08-30T09:42:11.089Z,6.5
2018-08-30T09:48:06.191Z,6.08
2018-08-30T09:54:01.183Z,7.11
2018-08-30T09:59:56.096Z,7.68
2018-08-30T10:05:51.123Z,6.5
2018-08-30T10:11:46.156Z,6.85
2018-08-30T10:17:41.174Z,6.49
2018-08-30T10:23:36.160Z,5.71
2018-08-30T10:29:31.138Z,8.34
2018-08-30T10:35:26.163Z,6.84
2018-08-30T10:41:21.141Z,11.97
2018-08-30T10:47:16.158Z,8.79
2018-08-30T10:53:11.167Z,6.5
2018-08-30T10:59:06.224Z,6.06
2018-08-30T11:05:01.149Z,7.72
2018-08-30T11:10:56.211Z,8.19
2018-08-30T11:16:51.174Z,8.76
2018-08-30T11:22:46.210Z,7.95
2018-08-30T11:28:41.229Z,7.77
2018-08-30T11:34:36.190Z,6.64
2018-08-30T11:40:31.179Z,7.97
2018-08-30T11:46:26.185Z,10.3
2018-08-30T11:52:21.265Z,8.88
2018-08-30T11:58:16.197Z,10.43
2018-08-30T12:04:11.235Z,9.55
2018-08-30T12:10:06.217Z,8.14
2018-08-30T12:16:01.209Z,9.11
2018-08-30T12:21:56.213Z,10.17
2018-08-30T12:27:51.282Z,9.31
2018-08-30T12:33:46.320Z,10.32
2018-08-30T12:39:41.372Z,9.63
2018-08-30T12:45:36.269Z,8.61
2018-08-30T12:51:31.484Z,10.07
2018-08-30T12:57:26.386Z,8.7
2018-08-30T13:03:21.386Z,11.23
2018-08-30T13:09:16.642Z,9.1
2018-08-30T13:15:11.862Z,8.43
2018-08-30T13:21:06.662Z,8.66
2018-08-30T13:27:01.751Z,8.7
2018-08-30T13:32:56.944Z,12.5
2018-08-30T13:38:51.736Z,9.74
2018-08-30T13:44:46.627Z,9.47
2018-08-30T13:50:41.652Z,10.54
2018-08-30T13:56:36.927Z,8.04
2018-08-30T14:02:31.629Z,8.65
2018-08-30T14:08:26.720Z,7.96
2018-08-30T14:14:21.674Z,11.21
2018-08-30T14:20:16.339Z,8.48
2018-08-30T14:26:11.408Z,9.81
2018-08-30T14:32:06.345Z,10.48
2018-08-30T14:38:01.399Z,11.62
2018-08-30T14:43:56.389Z,10.81
2018-08-30T14:49:51.332Z,9.77
2018-08-30T14:55:46.369Z,12.35
2018-08-30T15:01:41.388Z,10.23
2018-08-30T15:07:36.379Z,9.09
2018-08-30T15:13:31.388Z,9.78
2018-08-30T15:19:26.365Z,9.18
2018-08-30T15:25:21.391Z,7.85
2018-08-30T15:31:16.398Z,10.17
2018-08-30T15:37:11.422Z,10.08
2018-08-30T15:43:06.449Z,9.3
2018-08-30T15:49:01.410Z,9.32
2018-08-30T15:54:56.403Z,8.74
2018-08-30T16:00:51.387Z,8.47
2018-08-30T16:06:46.721Z,8.61
2018-08-30T16:12:41.440Z,8.27
2018-08-30T16:18:36.463Z,7.8
2018-08-30T16:24:31.609Z,8.6
2018-08-30T16:30:26.495Z,8.85
2018-08-30T16:36:21.446Z,8.51
2018-08-30T16:42:16.421Z,11.29
2018-08-30T16:48:11.438Z,12.53
2018-08-30T16:54:06.449Z,9.37
2018-08-30T17:00:01.449Z,9.15
2018-08-30T17:05:56.451Z,11.46
2018-08-30T17:11:51.433Z,9.87
2018-08-30T17:17:46.693Z,11.97
2018-08-30T17:23:41.466Z,9.49
2018-08-30T17:29:36.463Z,10.87
2018-08-30T17:35:31.489Z,9.21
2018-08-30T17:41:26.486Z,10.77
2018-08-30T17:47:21.519Z,10.63
2018-08-30T17:53:16.478Z,10.38
2018-08-30T17:59:11.509Z,12.05
2018-08-30T18:05:06.521Z,11.55
2018-08-30T18:11:01.512Z,8.29
2018-08-30T18:16:56.495Z,12.84
2018-08-30T18:22:51.556Z,9.1
2018-08-30T18:28:46.521Z,10.27
2018-08-30T18:34:41.573Z,9.63
2018-08-30T18:40:36.559Z,12.67
2018-08-30T18:46:31.535Z,9.56
2018-08-30T18:52:26.619Z,16.5
2018-08-30T18:58:21.533Z,9.9
2018-08-30T19:04:16.545Z,10.93
2018-08-30T19:10:11.542Z,12.35
2018-08-30T19:16:06.535Z,11.97
2018-08-30T19:22:01.575Z,9.86
2018-08-30T19:27:56.592Z,11.7
2018-08-30T19:33:51.576Z,10.5
2018-08-30T19:39:46.560Z,15.06
2018-08-30T19:45:41.563Z,9.58
2018-08-30T19:51:36.555Z,13.31
2018-08-30T19:57:31.586Z,11.02
2018-08-30T20:03:26.584Z,12.59
2018-08-30T20:09:21.659Z,14.95
2018-08-30T20:15:16.586Z,15.53
2018-08-30T20:21:11.574Z,13.11
2018-08-30T20:27:06.645Z,10.97
2018-08-30T20:33:01.590Z,11.86
2018-08-30T20:38:56.591Z,11.98
2018-08-30T20:44:51.619Z,12.53
2018-08-30T20:50:46.596Z,11.93
2018-08-30T20:56:41.669Z,13.78
2018-08-30T21:02:36.681Z,16.25
2018-08-30T21:08:31.652Z,11.82
2018-08-30T21:14:26.627Z,12.31
2018-08-30T21:20:21.637Z,13.91
2018-08-30T21:26:16.657Z,11.8
2018-08-30T21:32:11.632Z,12.46
2018-08-30T21:38:06.646Z,14.14
2018-08-30T21:44:01.649Z,10.66
2018-08-30T21:49:56.650Z,13.76
2018-08-30T21:55:51.657Z,10.94
2018-08-30T22:01:46.663Z,12.6
2018-08-30T22:07:41.688Z,11.49
2018-08-30T22:13:36.644Z,11.79
2018-08-30T22:19:31.668Z,12.47
2018-08-30T22:25:26.661Z,13.56
2018-08-30T22:31:21.685Z,15.5
2018-08-30T22:37:16.710Z,10.45
2018-08-30T22:43:11.706Z,11.76
2018-08-30T22:49:06.724Z,16.8
2018-08-30T22:55:01.749Z,11.77
2018-08-30T23:00:56.720Z,13.48
2018-08-30T23:06:51.761Z,14.29
2018-08-30T23:12:46.738Z,11.57
2018-08-30T23:18:41.703Z,16.86
2018-08-30T23:24:36.717Z,14.14
2018-08-30T23:30:31.828Z,14.07
2018-08-30T23:36:26.768Z,16.78
2018-08-30T23:42:21.731Z,15.27
2018-08-30T23:48:16.768Z,13.75
2018-08-30T23:54:11.747Z,13.46
